sensor_id;sensor_type;location;lat;lon;timestamp;temperature;humidity
314;DHT22;143;51.634;7.112;2023-05-07T00:02:23;16.70;1.00
314;DHT22;143;51.634;7.112;2023-05-07T00:04:48;16.70;1.00
314;DHT22;143;51.634;7.112;2023-05-07T00:07:15;16.70;1.00
314;DHT22;143;51.634;7.112;2023-05-07T00:09:40;16.70;1.00
314;DHT22;143;51.634;7.112;2023-05-07T00:12:07;16.70;1.00
314;DHT22;143;51.634;7.112;2023-05-07T00:14:32;16.60;1.00
314;DHT22;143;51.634;7.112;2023-05-07T00:16:58;16.60;1.00
314;DHT22;143;51.634;7.112;2023-05-07T00:19:24;16.60;1.00
314;DHT22;143;51.634;7.112;2023-05-07T00:21:49;16.60;1.00
314;DHT22;143;51.634;7.112;2023-05-07T00:24:15;16.60;1.00
314;DHT22;143;51.634;7.112;2023-05-07T00:26:41;16.60;1.00
314;DHT22;143;51.634;7.112;2023-05-07T00:29:07;16.60;1.00
314;DHT22;143;51.634;7.112;2023-05-07T00:31:32;16.60;1.00
314;DHT22;143;51.634;7.112;2023-05-07T00:33:58;16.60;1.00
314;DHT22;143;51.634;7.112;2023-05-07T00:36:24;16.60;1.00
314;DHT22;143;51.634;7.112;2023-05-07T00:38:51;16.60;1.00
314;DHT22;143;51.634;7.112;2023-05-07T00:41:17;16.60;1.00
314;DHT22;143;51.634;7.112;2023-05-07T00:43:43;16.60;1.00
314;DHT22;143;51.634;7.112;2023-05-07T00:46:08;16.60;1.00
314;DHT22;143;51.634;7.112;2023-05-07T00:48:35;16.50;1.00
314;DHT22;143;51.634;7.112;2023-05-07T00:51:01;16.60;1.00
314;DHT22;143;51.634;7.112;2023-05-07T00:53:26;16.60;1.00
314;DHT22;143;51.634;7.112;2023-05-07T00:55:52;16.50;1.00
314;DHT22;143;51.634;7.112;2023-05-07T00:58:19;16.60;1.00
314;DHT22;143;51.634;7.112;2023-05-07T01:00:45;16.60;1.00
314;DHT22;143;51.634;7.112;2023-05-07T01:03:11;16.60;1.00
314;DHT22;143;51.634;7.112;2023-05-07T01:05:36;16.60;1.00
314;DHT22;143;51.634;7.112;2023-05-07T01:08:02;16.60;1.00
314;DHT22;143;51.634;7.112;2023-05-07T01:10:29;16.60;1.00
314;DHT22;143;51.634;7.112;2023-05-07T01:12:57;16.60;1.00
314;DHT22;143;51.634;7.112;2023-05-07T01:15:23;16.50;1.00
314;DHT22;143;51.634;7.112;2023-05-07T01:17:49;16.50;1.00
314;DHT22;143;51.634;7.112;2023-05-07T01:20:14;16.50;1.00
314;DHT22;143;51.634;7.112;2023-05-07T01:22:42;16.50;1.00
314;DHT22;143;51.634;7.112;2023-05-07T01:25:08;16.50;1.00
314;DHT22;143;51.634;7.112;2023-05-07T01:27:34;16.50;1.00
314;DHT22;143;51.634;7.112;2023-05-07T01:30:02;16.50;1.00
314;DHT22;143;51.634;7.112;2023-05-07T01:32:38;16.50;1.00
314;DHT22;143;51.634;7.112;2023-05-07T01:35:09;16.50;1.00
314;DHT22;143;51.634;7.112;2023-05-07T01:37:35;16.50;1.00
314;DHT22;143;51.634;7.112;2023-05-07T01:40:02;16.50;1.00
314;DHT22;143;51.634;7.112;2023-05-07T01:42:29;16.40;1.00
314;DHT22;143;51.634;7.112;2023-05-07T01:44:55;16.40;1.00
314;DHT22;143;51.634;7.112;2023-05-07T01:47:21;16.40;1.00
314;DHT22;143;51.634;7.112;2023-05-07T01:49:48;16.40;1.00
314;DHT22;143;51.634;7.112;2023-05-07T01:52:14;16.40;1.00
314;DHT22;143;51.634;7.112;2023-05-07T01:54:39;16.40;1.00
314;DHT22;143;51.634;7.112;2023-05-07T01:57:05;16.40;1.00
314;DHT22;143;51.634;7.112;2023-05-07T01:59:31;16.50;1.00
314;DHT22;143;51.634;7.112;2023-05-07T02:01:56;16.50;1.00
314;DHT22;143;51.634;7.112;2023-05-07T02:04:22;16.50;1.00
314;DHT22;143;51.634;7.112;2023-05-07T02:06:48;16.50;1.00
314;DHT22;143;51.634;7.112;2023-05-07T02:09:13;16.50;1.00
314;DHT22;143;51.634;7.112;2023-05-07T02:11:40;16.50;1.00
314;DHT22;143;51.634;7.112;2023-05-07T02:14:06;16.50;1.00
314;DHT22;143;51.634;7.112;2023-05-07T02:16:31;16.50;1.00
314;DHT22;143;51.634;7.112;2023-05-07T02:18:57;16.50;1.00
314;DHT22;143;51.634;7.112;2023-05-07T02:21:24;16.50;1.00
314;DHT22;143;51.634;7.112;2023-05-07T02:23:50;16.50;1.00
314;DHT22;143;51.634;7.112;2023-05-07T02:26:16;16.50;1.00
314;DHT22;143;51.634;7.112;2023-05-07T02:28:41;16.50;1.00
314;DHT22;143;51.634;7.112;2023-05-07T02:31:07;16.50;1.00
314;DHT22;143;51.634;7.112;2023-05-07T02:33:33;16.50;1.00
314;DHT22;143;51.634;7.112;2023-05-07T02:36:10;16.50;1.00
314;DHT22;143;51.634;7.112;2023-05-07T02:38:36;16.50;1.00
314;DHT22;143;51.634;7.112;2023-05-07T02:41:02;16.50;1.00
314;DHT22;143;51.634;7.112;2023-05-07T02:43:28;16.50;1.00
314;DHT22;143;51.634;7.112;2023-05-07T02:46:03;16.40;1.00
314;DHT22;143;51.634;7.112;2023-05-07T02:48:29;16.40;1.00
314;DHT22;143;51.634;7.112;2023-05-07T02:50:55;16.40;1.00
314;DHT22;143;51.634;7.112;2023-05-07T02:53:21;16.40;1.00
314;DHT22;143;51.634;7.112;2023-05-07T02:55:46;16.40;1.00
314;DHT22;143;51.634;7.112;2023-05-07T02:58:12;16.40;1.00
314;DHT22;143;51.634;7.112;2023-05-07T03:00:38;16.40;1.00
314;DHT22;143;51.634;7.112;2023-05-07T03:03:03;16.40;1.00
314;DHT22;143;51.634;7.112;2023-05-07T03:05:29;16.40;1.00
314;DHT22;143;51.634;7.112;2023-05-07T03:07:55;16.40;1.00
314;DHT22;143;51.634;7.112;2023-05-07T03:10:20;16.40;1.00
314;DHT22;143;51.634;7.112;2023-05-07T03:12:46;16.40;1.00
314;DHT22;143;51.634;7.112;2023-05-07T03:15:12;16.40;1.00
314;DHT22;143;51.634;7.112;2023-05-07T03:17:38;16.40;1.00
314;DHT22;143;51.634;7.112;2023-05-07T03:20:04;16.40;1.00
314;DHT22;143;51.634;7.112;2023-05-07T03:22:30;16.30;1.00
314;DHT22;143;51.634;7.112;2023-05-07T03:24:56;16.30;1.00
314;DHT22;143;51.634;7.112;2023-05-07T03:27:21;16.30;1.00
314;DHT22;143;51.634;7.112;2023-05-07T03:29:47;16.30;1.00
314;DHT22;143;51.634;7.112;2023-05-07T03:32:13;16.30;1.00
314;DHT22;143;51.634;7.112;2023-05-07T03:34:39;16.30;1.00
314;DHT22;143;51.634;7.112;2023-05-07T03:37:05;16.30;1.00
314;DHT22;143;51.634;7.112;2023-05-07T03:39:31;16.30;1.00
314;DHT22;143;51.634;7.112;2023-05-07T03:41:58;16.30;1.00
314;DHT22;143;51.634;7.112;2023-05-07T03:44:23;16.30;1.00
314;DHT22;143;51.634;7.112;2023-05-07T03:46:49;16.30;1.00
314;DHT22;143;51.634;7.112;2023-05-07T03:49:15;16.30;1.00
314;DHT22;143;51.634;7.112;2023-05-07T03:51:41;16.30;1.00
314;DHT22;143;51.634;7.112;2023-05-07T03:54:07;16.30;1.00
314;DHT22;143;51.634;7.112;2023-05-07T03:56:33;16.30;1.00
314;DHT22;143;51.634;7.112;2023-05-07T03:59:00;16.20;1.00
314;DHT22;143;51.634;7.112;2023-05-07T04:01:26;16.20;1.00
314;DHT22;143;51.634;7.112;2023-05-07T04:03:52;16.20;1.00
314;DHT22;143;51.634;7.112;2023-05-07T04:06:18;16.20;1.00
314;DHT22;143;51.634;7.112;2023-05-07T04:08:44;16.20;1.00
314;DHT22;143;51.634;7.112;2023-05-07T04:11:09;16.20;1.00
314;DHT22;143;51.634;7.112;2023-05-07T04:13:35;16.20;1.00
314;DHT22;143;51.634;7.112;2023-05-07T04:16:02;16.20;1.00
314;DHT22;143;51.634;7.112;2023-05-07T04:18:28;16.20;1.00
314;DHT22;143;51.634;7.112;2023-05-07T04:20:54;16.20;1.00
314;DHT22;143;51.634;7.112;2023-05-07T04:23:20;16.20;1.00
314;DHT22;143;51.634;7.112;2023-05-07T04:25:46;16.10;1.00
314;DHT22;143;51.634;7.112;2023-05-07T04:28:12;16.20;1.00
314;DHT22;143;51.634;7.112;2023-05-07T04:30:38;16.20;1.00
314;DHT22;143;51.634;7.112;2023-05-07T04:33:04;16.20;1.00
314;DHT22;143;51.634;7.112;2023-05-07T04:35:34;16.20;1.00
314;DHT22;143;51.634;7.112;2023-05-07T04:38:04;16.20;1.00
314;DHT22;143;51.634;7.112;2023-05-07T04:40:39;16.20;1.00
314;DHT22;143;51.634;7.112;2023-05-07T04:43:13;16.20;1.00
314;DHT22;143;51.634;7.112;2023-05-07T04:45:41;16.20;1.00
314;DHT22;143;51.634;7.112;2023-05-07T04:48:13;16.20;1.00
314;DHT22;143;51.634;7.112;2023-05-07T04:50:42;16.20;1.00
314;DHT22;143;51.634;7.112;2023-05-07T04:53:08;16.20;1.00
314;DHT22;143;51.634;7.112;2023-05-07T04:55:34;16.20;1.00
314;DHT22;143;51.634;7.112;2023-05-07T04:58:05;16.30;1.00
314;DHT22;143;51.634;7.112;2023-05-07T05:00:44;16.30;1.00
314;DHT22;143;51.634;7.112;2023-05-07T05:03:21;16.30;1.00
314;DHT22;143;51.634;7.112;2023-05-07T05:05:54;16.30;1.00
314;DHT22;143;51.634;7.112;2023-05-07T05:08:33;16.30;1.00
314;DHT22;143;51.634;7.112;2023-05-07T05:11:08;16.30;1.00
314;DHT22;143;51.634;7.112;2023-05-07T05:13:41;16.30;1.00
314;DHT22;143;51.634;7.112;2023-05-07T05:16:11;16.40;1.00
314;DHT22;143;51.634;7.112;2023-05-07T05:18:48;16.40;1.00
314;DHT22;143;51.634;7.112;2023-05-07T05:21:24;16.40;1.00
314;DHT22;143;51.634;7.112;2023-05-07T05:23:50;16.40;1.00
314;DHT22;143;51.634;7.112;2023-05-07T05:26:17;16.50;1.00
314;DHT22;143;51.634;7.112;2023-05-07T05:28:43;16.50;1.00
314;DHT22;143;51.634;7.112;2023-05-07T05:31:08;16.50;1.00
314;DHT22;143;51.634;7.112;2023-05-07T05:33:34;16.50;1.00
314;DHT22;143;51.634;7.112;2023-05-07T05:36:00;16.50;1.00
314;DHT22;143;51.634;7.112;2023-05-07T05:38:26;16.50;1.00
314;DHT22;143;51.634;7.112;2023-05-07T05:40:52;16.50;1.00
314;DHT22;143;51.634;7.112;2023-05-07T05:43:17;16.50;1.00
314;DHT22;143;51.634;7.112;2023-05-07T05:45:43;16.50;1.00
314;DHT22;143;51.634;7.112;2023-05-07T05:48:09;16.60;1.00
314;DHT22;143;51.634;7.112;2023-05-07T05:50:35;16.70;1.00
314;DHT22;143;51.634;7.112;2023-05-07T05:53:03;16.70;1.00
314;DHT22;143;51.634;7.112;2023-05-07T05:55:30;16.80;1.00
314;DHT22;143;51.634;7.112;2023-05-07T05:57:58;16.80;1.00
314;DHT22;143;51.634;7.112;2023-05-07T06:00:24;16.90;1.00
314;DHT22;143;51.634;7.112;2023-05-07T06:02:50;16.90;1.00
314;DHT22;143;51.634;7.112;2023-05-07T06:05:15;16.90;1.00
314;DHT22;143;51.634;7.112;2023-05-07T06:07:41;16.90;1.00
314;DHT22;143;51.634;7.112;2023-05-07T06:10:07;16.90;1.00
314;DHT22;143;51.634;7.112;2023-05-07T06:12:33;17.00;1.00
314;DHT22;143;51.634;7.112;2023-05-07T06:14:59;17.00;1.00
314;DHT22;143;51.634;7.112;2023-05-07T06:17:24;17.10;1.00
314;DHT22;143;51.634;7.112;2023-05-07T06:19:50;17.10;1.00
314;DHT22;143;51.634;7.112;2023-05-07T06:22:16;17.20;1.00
314;DHT22;143;51.634;7.112;2023-05-07T06:24:42;17.20;1.00
314;DHT22;143;51.634;7.112;2023-05-07T06:27:08;17.20;1.00
314;DHT22;143;51.634;7.112;2023-05-07T06:29:33;17.30;1.00
314;DHT22;143;51.634;7.112;2023-05-07T06:32:09;17.30;1.00
314;DHT22;143;51.634;7.112;2023-05-07T06:34:35;17.30;1.00
314;DHT22;143;51.634;7.112;2023-05-07T06:37:02;17.30;1.00
314;DHT22;143;51.634;7.112;2023-05-07T06:39:28;17.40;1.00
314;DHT22;143;51.634;7.112;2023-05-07T06:41:54;17.40;1.00
314;DHT22;143;51.634;7.112;2023-05-07T06:44:19;17.40;1.00
314;DHT22;143;51.634;7.112;2023-05-07T06:46:45;17.50;1.00
314;DHT22;143;51.634;7.112;2023-05-07T06:49:13;17.50;1.00
314;DHT22;143;51.634;7.112;2023-05-07T06:51:39;17.50;1.00
314;DHT22;143;51.634;7.112;2023-05-07T06:54:05;17.50;1.00
314;DHT22;143;51.634;7.112;2023-05-07T06:56:32;17.60;1.00
314;DHT22;143;51.634;7.112;2023-05-07T06:58:57;17.50;1.00
314;DHT22;143;51.634;7.112;2023-05-07T07:01:23;17.60;1.00
314;DHT22;143;51.634;7.112;2023-05-07T07:03:49;17.60;1.00
314;DHT22;143;51.634;7.112;2023-05-07T07:06:16;17.60;1.00
314;DHT22;143;51.634;7.112;2023-05-07T07:08:42;17.60;1.00
314;DHT22;143;51.634;7.112;2023-05-07T07:11:08;17.70;1.00
314;DHT22;143;51.634;7.112;2023-05-07T07:13:34;17.70;1.00
314;DHT22;143;51.634;7.112;2023-05-07T07:16:00;17.70;1.00
314;DHT22;143;51.634;7.112;2023-05-07T07:18:26;17.80;1.00
314;DHT22;143;51.634;7.112;2023-05-07T07:20:51;17.80;1.00
314;DHT22;143;51.634;7.112;2023-05-07T07:23:17;17.90;1.00
314;DHT22;143;51.634;7.112;2023-05-07T07:25:43;17.90;1.00
314;DHT22;143;51.634;7.112;2023-05-07T07:28:09;17.90;1.00
314;DHT22;143;51.634;7.112;2023-05-07T07:30:36;18.00;1.00
314;DHT22;143;51.634;7.112;2023-05-07T07:33:02;18.00;1.00
314;DHT22;143;51.634;7.112;2023-05-07T07:35:32;18.10;1.00
314;DHT22;143;51.634;7.112;2023-05-07T07:37:58;18.10;1.00
314;DHT22;143;51.634;7.112;2023-05-07T07:40:24;18.20;1.00
314;DHT22;143;51.634;7.112;2023-05-07T07:42:53;18.20;1.00
314;DHT22;143;51.634;7.112;2023-05-07T07:45:20;18.20;1.00
314;DHT22;143;51.634;7.112;2023-05-07T07:47:46;18.30;1.00
314;DHT22;143;51.634;7.112;2023-05-07T07:50:11;18.30;1.00
314;DHT22;143;51.634;7.112;2023-05-07T07:52:37;18.40;1.00
314;DHT22;143;51.634;7.112;2023-05-07T07:55:03;18.50;1.00
314;DHT22;143;51.634;7.112;2023-05-07T07:57:30;18.60;1.00
314;DHT22;143;51.634;7.112;2023-05-07T07:59:55;18.70;1.00
314;DHT22;143;51.634;7.112;2023-05-07T08:02:21;18.70;1.00
314;DHT22;143;51.634;7.112;2023-05-07T08:04:47;18.80;1.00
314;DHT22;143;51.634;7.112;2023-05-07T08:07:13;18.90;1.00
314;DHT22;143;51.634;7.112;2023-05-07T08:09:39;19.00;1.00
314;DHT22;143;51.634;7.112;2023-05-07T08:12:06;19.00;1.00
314;DHT22;143;51.634;7.112;2023-05-07T08:14:33;19.00;1.00
314;DHT22;143;51.634;7.112;2023-05-07T08:16:58;19.00;1.00
314;DHT22;143;51.634;7.112;2023-05-07T08:19:24;19.00;1.00
314;DHT22;143;51.634;7.112;2023-05-07T08:21:50;19.00;1.00
314;DHT22;143;51.634;7.112;2023-05-07T08:24:16;19.10;1.00
314;DHT22;143;51.634;7.112;2023-05-07T08:26:43;19.10;1.00
314;DHT22;143;51.634;7.112;2023-05-07T08:29:09;19.10;1.00
314;DHT22;143;51.634;7.112;2023-05-07T08:31:35;19.20;1.00
314;DHT22;143;51.634;7.112;2023-05-07T08:34:02;19.20;1.00
314;DHT22;143;51.634;7.112;2023-05-07T08:36:29;19.30;1.00
314;DHT22;143;51.634;7.112;2023-05-07T08:38:56;19.40;1.00
314;DHT22;143;51.634;7.112;2023-05-07T08:41:21;19.40;1.00
314;DHT22;143;51.634;7.112;2023-05-07T08:43:49;19.30;1.00
314;DHT22;143;51.634;7.112;2023-05-07T08:46:22;19.30;1.00
314;DHT22;143;51.634;7.112;2023-05-07T08:48:48;19.30;1.00
314;DHT22;143;51.634;7.112;2023-05-07T08:51:19;19.30;1.00
314;DHT22;143;51.634;7.112;2023-05-07T08:53:47;19.20;1.00
314;DHT22;143;51.634;7.112;2023-05-07T08:56:14;19.30;1.00
314;DHT22;143;51.634;7.112;2023-05-07T08:58:42;19.30;1.00
314;DHT22;143;51.634;7.112;2023-05-07T09:01:09;19.40;1.00
314;DHT22;143;51.634;7.112;2023-05-07T09:03:37;19.40;1.00
314;DHT22;143;51.634;7.112;2023-05-07T09:06:05;19.50;1.00
314;DHT22;143;51.634;7.112;2023-05-07T09:08:33;19.50;1.00
314;DHT22;143;51.634;7.112;2023-05-07T09:10:59;19.60;1.00
314;DHT22;143;51.634;7.112;2023-05-07T09:13:27;19.70;1.00
314;DHT22;143;51.634;7.112;2023-05-07T09:15:53;19.70;1.00
314;DHT22;143;51.634;7.112;2023-05-07T09:18:18;19.80;1.00
314;DHT22;143;51.634;7.112;2023-05-07T09:20:44;19.80;1.00
314;DHT22;143;51.634;7.112;2023-05-07T09:23:10;19.80;1.00
314;DHT22;143;51.634;7.112;2023-05-07T09:25:36;19.80;1.00
314;DHT22;143;51.634;7.112;2023-05-07T09:28:03;19.80;1.00
314;DHT22;143;51.634;7.112;2023-05-07T09:30:30;19.90;1.00
314;DHT22;143;51.634;7.112;2023-05-07T09:32:58;19.90;1.00
314;DHT22;143;51.634;7.112;2023-05-07T09:35:26;20.00;1.00
314;DHT22;143;51.634;7.112;2023-05-07T09:37:56;20.20;1.00
314;DHT22;143;51.634;7.112;2023-05-07T09:40:26;20.20;1.00
314;DHT22;143;51.634;7.112;2023-05-07T09:42:53;20.30;1.00
314;DHT22;143;51.634;7.112;2023-05-07T09:45:28;20.40;1.00
314;DHT22;143;51.634;7.112;2023-05-07T09:47:55;20.50;1.00
314;DHT22;143;51.634;7.112;2023-05-07T09:50:27;20.60;1.00
314;DHT22;143;51.634;7.112;2023-05-07T09:52:57;20.70;1.00
314;DHT22;143;51.634;7.112;2023-05-07T09:55:23;20.90;1.00
314;DHT22;143;51.634;7.112;2023-05-07T09:57:53;21.00;1.00
314;DHT22;143;51.634;7.112;2023-05-07T10:00:20;21.20;1.00
314;DHT22;143;51.634;7.112;2023-05-07T10:02:49;21.40;1.00
314;DHT22;143;51.634;7.112;2023-05-07T10:05:16;21.60;1.00
314;DHT22;143;51.634;7.112;2023-05-07T10:07:42;21.80;1.00
314;DHT22;143;51.634;7.112;2023-05-07T10:10:09;21.80;99.90
314;DHT22;143;51.634;7.112;2023-05-07T10:12:35;21.90;99.90
314;DHT22;143;51.634;7.112;2023-05-07T10:15:09;22.00;99.90
314;DHT22;143;51.634;7.112;2023-05-07T10:17:40;22.10;99.90
314;DHT22;143;51.634;7.112;2023-05-07T10:20:07;22.20;99.90
314;DHT22;143;51.634;7.112;2023-05-07T10:22:47;22.30;99.90
314;DHT22;143;51.634;7.112;2023-05-07T10:25:20;22.30;99.90
314;DHT22;143;51.634;7.112;2023-05-07T10:27:48;22.40;99.90
314;DHT22;143;51.634;7.112;2023-05-07T10:32:50;22.40;99.90
314;DHT22;143;51.634;7.112;2023-05-07T10:35:20;22.50;99.90
314;DHT22;143;51.634;7.112;2023-05-07T10:37:47;22.60;99.90
314;DHT22;143;51.634;7.112;2023-05-07T10:40:13;22.60;99.90
314;DHT22;143;51.634;7.112;2023-05-07T10:42:59;22.70;99.90
314;DHT22;143;51.634;7.112;2023-05-07T10:45:26;22.80;99.90
314;DHT22;143;51.634;7.112;2023-05-07T10:48:16;22.90;99.90
314;DHT22;143;51.634;7.112;2023-05-07T10:50:43;23.00;99.90
314;DHT22;143;51.634;7.112;2023-05-07T10:55:51;23.20;99.90
314;DHT22;143;51.634;7.112;2023-05-07T11:00:49;23.30;99.90
314;DHT22;143;51.634;7.112;2023-05-07T11:03:15;23.30;16.70
314;DHT22;143;51.634;7.112;2023-05-07T11:05:42;23.20;1.00
314;DHT22;143;51.634;7.112;2023-05-07T11:08:08;23.30;1.00
314;DHT22;143;51.634;7.112;2023-05-07T11:10:55;23.30;1.00
314;DHT22;143;51.634;7.112;2023-05-07T11:13:57;23.50;1.00
314;DHT22;143;51.634;7.112;2023-05-07T11:16:24;23.60;1.00
314;DHT22;143;51.634;7.112;2023-05-07T11:18:52;23.70;1.00
314;DHT22;143;51.634;7.112;2023-05-07T11:21:37;23.90;1.00
314;DHT22;143;51.634;7.112;2023-05-07T11:24:04;24.00;1.00
314;DHT22;143;51.634;7.112;2023-05-07T11:26:52;24.20;1.00
314;DHT22;143;51.634;7.112;2023-05-07T11:29:19;24.40;1.00
314;DHT22;143;51.634;7.112;2023-05-07T11:31:49;24.60;1.00
314;DHT22;143;51.634;7.112;2023-05-07T11:34:15;24.40;1.00
314;DHT22;143;51.634;7.112;2023-05-07T11:36:46;24.40;1.00
314;DHT22;143;51.634;7.112;2023-05-07T11:39:29;24.40;1.00
314;DHT22;143;51.634;7.112;2023-05-07T11:41:55;24.50;1.00
314;DHT22;143;51.634;7.112;2023-05-07T11:44:21;24.60;1.00
314;DHT22;143;51.634;7.112;2023-05-07T11:46:47;24.70;1.00
314;DHT22;143;51.634;7.112;2023-05-07T11:49:13;24.60;1.00
314;DHT22;143;51.634;7.112;2023-05-07T11:51:39;24.60;1.00
314;DHT22;143;51.634;7.112;2023-05-07T11:54:06;24.80;1.00
314;DHT22;143;51.634;7.112;2023-05-07T11:56:37;25.00;1.00
314;DHT22;143;51.634;7.112;2023-05-07T11:59:02;25.10;1.00
314;DHT22;143;51.634;7.112;2023-05-07T12:01:28;25.30;1.00
314;DHT22;143;51.634;7.112;2023-05-07T12:03:54;25.40;1.00
314;DHT22;143;51.634;7.112;2023-05-07T12:06:20;25.40;1.00
314;DHT22;143;51.634;7.112;2023-05-07T12:08:46;25.50;1.00
314;DHT22;143;51.634;7.112;2023-05-07T12:11:21;25.50;1.00
314;DHT22;143;51.634;7.112;2023-05-07T12:13:47;25.50;1.00
314;DHT22;143;51.634;7.112;2023-05-07T12:16:14;25.60;1.00
314;DHT22;143;51.634;7.112;2023-05-07T12:18:40;25.60;1.00
314;DHT22;143;51.634;7.112;2023-05-07T12:21:07;25.70;1.00
314;DHT22;143;51.634;7.112;2023-05-07T12:23:35;25.60;1.00
314;DHT22;143;51.634;7.112;2023-05-07T12:26:02;25.70;1.00
314;DHT22;143;51.634;7.112;2023-05-07T12:28:28;25.70;1.00
314;DHT22;143;51.634;7.112;2023-05-07T12:30:54;25.60;1.00
314;DHT22;143;51.634;7.112;2023-05-07T12:33:25;25.60;1.00
314;DHT22;143;51.634;7.112;2023-05-07T12:35:55;25.60;1.00
314;DHT22;143;51.634;7.112;2023-05-07T12:38:22;25.60;1.00
314;DHT22;143;51.634;7.112;2023-05-07T12:40:50;25.50;1.00
314;DHT22;143;51.634;7.112;2023-05-07T12:43:20;25.50;1.00
314;DHT22;143;51.634;7.112;2023-05-07T12:45:50;25.40;1.00
314;DHT22;143;51.634;7.112;2023-05-07T12:48:15;25.40;1.00
314;DHT22;143;51.634;7.112;2023-05-07T12:50:42;25.40;1.00
314;DHT22;143;51.634;7.112;2023-05-07T12:53:10;25.40;1.00
314;DHT22;143;51.634;7.112;2023-05-07T12:55:49;25.50;1.00
314;DHT22;143;51.634;7.112;2023-05-07T12:58:23;25.40;1.00
314;DHT22;143;51.634;7.112;2023-05-07T13:00:50;25.30;1.00
314;DHT22;143;51.634;7.112;2023-05-07T13:03:28;25.30;1.00
314;DHT22;143;51.634;7.112;2023-05-07T13:05:55;25.30;1.00
314;DHT22;143;51.634;7.112;2023-05-07T13:08:30;25.20;1.00
314;DHT22;143;51.634;7.112;2023-05-07T13:11:00;25.10;1.00
314;DHT22;143;51.634;7.112;2023-05-07T13:13:29;25.00;1.00
314;DHT22;143;51.634;7.112;2023-05-07T13:15:55;24.90;1.00
314;DHT22;143;51.634;7.112;2023-05-07T13:18:21;24.80;1.00
314;DHT22;143;51.634;7.112;2023-05-07T13:20:47;24.70;1.00
314;DHT22;143;51.634;7.112;2023-05-07T13:23:13;24.70;1.00
314;DHT22;143;51.634;7.112;2023-05-07T13:25:38;24.70;1.00
314;DHT22;143;51.634;7.112;2023-05-07T13:28:04;24.50;1.00
314;DHT22;143;51.634;7.112;2023-05-07T13:30:30;24.30;1.00
314;DHT22;143;51.634;7.112;2023-05-07T13:32:56;24.20;1.00
314;DHT22;143;51.634;7.112;2023-05-07T13:35:22;24.10;1.00
314;DHT22;143;51.634;7.112;2023-05-07T13:37:48;24.00;1.00
314;DHT22;143;51.634;7.112;2023-05-07T13:40:14;23.80;1.00
314;DHT22;143;51.634;7.112;2023-05-07T13:42:40;23.60;1.00
314;DHT22;143;51.634;7.112;2023-05-07T13:45:07;23.50;1.00
314;DHT22;143;51.634;7.112;2023-05-07T13:47:33;23.50;1.00
314;DHT22;143;51.634;7.112;2023-05-07T13:49:59;23.40;1.00
314;DHT22;143;51.634;7.112;2023-05-07T13:52:24;23.30;1.00
314;DHT22;143;51.634;7.112;2023-05-07T13:54:51;23.30;1.00
314;DHT22;143;51.634;7.112;2023-05-07T13:57:18;23.20;1.00
314;DHT22;143;51.634;7.112;2023-05-07T13:59:43;23.20;1.00
314;DHT22;143;51.634;7.112;2023-05-07T14:02:09;23.10;1.00
314;DHT22;143;51.634;7.112;2023-05-07T14:04:35;23.20;1.00
314;DHT22;143;51.634;7.112;2023-05-07T14:07:01;23.10;1.00
314;DHT22;143;51.634;7.112;2023-05-07T14:09:26;23.10;1.00
314;DHT22;143;51.634;7.112;2023-05-07T14:11:52;23.00;1.00
314;DHT22;143;51.634;7.112;2023-05-07T14:14:18;23.00;1.00
314;DHT22;143;51.634;7.112;2023-05-07T14:16:44;22.90;1.00
314;DHT22;143;51.634;7.112;2023-05-07T14:19:11;22.80;1.00
314;DHT22;143;51.634;7.112;2023-05-07T14:21:37;22.80;1.00
314;DHT22;143;51.634;7.112;2023-05-07T14:24:05;22.80;1.00
314;DHT22;143;51.634;7.112;2023-05-07T14:26:32;22.70;1.00
314;DHT22;143;51.634;7.112;2023-05-07T14:28:57;22.70;1.00
314;DHT22;143;51.634;7.112;2023-05-07T14:31:24;22.70;1.00
314;DHT22;143;51.634;7.112;2023-05-07T14:33:49;22.60;1.00
314;DHT22;143;51.634;7.112;2023-05-07T14:36:16;22.60;1.00
314;DHT22;143;51.634;7.112;2023-05-07T14:38:42;22.60;1.00
314;DHT22;143;51.634;7.112;2023-05-07T14:41:08;22.60;1.00
314;DHT22;143;51.634;7.112;2023-05-07T14:43:34;22.50;1.00
314;DHT22;143;51.634;7.112;2023-05-07T14:45:59;22.50;1.00
314;DHT22;143;51.634;7.112;2023-05-07T14:48:25;22.40;1.00
314;DHT22;143;51.634;7.112;2023-05-07T14:50:51;22.40;1.00
314;DHT22;143;51.634;7.112;2023-05-07T14:53:16;22.40;1.00
314;DHT22;143;51.634;7.112;2023-05-07T14:55:42;22.40;1.00
314;DHT22;143;51.634;7.112;2023-05-07T14:58:08;22.30;1.00
314;DHT22;143;51.634;7.112;2023-05-07T15:00:34;22.30;1.00
314;DHT22;143;51.634;7.112;2023-05-07T15:03:09;22.30;1.00
314;DHT22;143;51.634;7.112;2023-05-07T15:05:37;22.20;1.00
314;DHT22;143;51.634;7.112;2023-05-07T15:08:03;22.20;1.00
314;DHT22;143;51.634;7.112;2023-05-07T15:10:28;22.10;1.00
314;DHT22;143;51.634;7.112;2023-05-07T15:12:54;22.10;1.00
314;DHT22;143;51.634;7.112;2023-05-07T15:15:20;22.10;1.00
314;DHT22;143;51.634;7.112;2023-05-07T15:17:46;22.00;27.30
314;DHT22;143;51.634;7.112;2023-05-07T15:20:12;22.00;56.40
314;DHT22;143;51.634;7.112;2023-05-07T15:22:38;22.00;44.50
314;DHT22;143;51.634;7.112;2023-05-07T15:25:04;22.00;63.50
314;DHT22;143;51.634;7.112;2023-05-07T15:27:30;21.90;92.40
314;DHT22;143;51.634;7.112;2023-05-07T15:29:57;21.90;99.90
314;DHT22;143;51.634;7.112;2023-05-07T15:32:23;22.00;99.90
314;DHT22;143;51.634;7.112;2023-05-07T15:34:48;21.90;99.90
314;DHT22;143;51.634;7.112;2023-05-07T15:37:14;21.90;99.90
314;DHT22;143;51.634;7.112;2023-05-07T15:39:40;21.80;99.90
314;DHT22;143;51.634;7.112;2023-05-07T15:42:06;21.80;99.90
314;DHT22;143;51.634;7.112;2023-05-07T15:44:31;21.80;99.90
314;DHT22;143;51.634;7.112;2023-05-07T15:46:59;21.70;99.90
314;DHT22;143;51.634;7.112;2023-05-07T15:49:25;21.80;99.90
314;DHT22;143;51.634;7.112;2023-05-07T15:51:51;21.80;99.90
314;DHT22;143;51.634;7.112;2023-05-07T15:54:19;21.80;99.90
314;DHT22;143;51.634;7.112;2023-05-07T15:56:46;21.80;99.90
314;DHT22;143;51.634;7.112;2023-05-07T15:59:12;21.90;99.90
314;DHT22;143;51.634;7.112;2023-05-07T16:01:38;21.90;99.90
314;DHT22;143;51.634;7.112;2023-05-07T16:04:06;21.90;99.90
314;DHT22;143;51.634;7.112;2023-05-07T16:06:32;21.90;99.90
314;DHT22;143;51.634;7.112;2023-05-07T16:08:58;22.00;99.90
314;DHT22;143;51.634;7.112;2023-05-07T16:11:24;22.00;99.90
314;DHT22;143;51.634;7.112;2023-05-07T16:13:50;22.00;99.90
314;DHT22;143;51.634;7.112;2023-05-07T16:16:16;22.00;99.90
314;DHT22;143;51.634;7.112;2023-05-07T16:18:42;22.00;99.90
314;DHT22;143;51.634;7.112;2023-05-07T16:21:07;22.00;99.90
314;DHT22;143;51.634;7.112;2023-05-07T16:23:33;22.00;99.90
314;DHT22;143;51.634;7.112;2023-05-07T16:25:59;22.00;99.90
314;DHT22;143;51.634;7.112;2023-05-07T16:28:24;22.10;99.90
314;DHT22;143;51.634;7.112;2023-05-07T16:30:50;22.10;99.90
314;DHT22;143;51.634;7.112;2023-05-07T16:33:16;22.00;99.90
314;DHT22;143;51.634;7.112;2023-05-07T16:35:42;22.00;99.90
314;DHT22;143;51.634;7.112;2023-05-07T16:38:12;22.00;99.90
314;DHT22;143;51.634;7.112;2023-05-07T16:40:38;21.90;99.90
314;DHT22;143;51.634;7.112;2023-05-07T16:43:05;21.90;99.90
314;DHT22;143;51.634;7.112;2023-05-07T16:45:32;21.90;99.90
314;DHT22;143;51.634;7.112;2023-05-07T16:47:58;21.90;99.90
314;DHT22;143;51.634;7.112;2023-05-07T16:50:24;21.90;99.90
314;DHT22;143;51.634;7.112;2023-05-07T16:52:50;21.90;99.90
314;DHT22;143;51.634;7.112;2023-05-07T16:55:16;21.80;99.90
314;DHT22;143;51.634;7.112;2023-05-07T16:57:41;21.80;99.90